Time;durP1;ratioP1;P1;durP2;ratioP2;P2;SDS_P1;SDS_P2;PMS_P1;PMS_P2;Temp;Humidity;BMP_temperature;BMP_pressure;BME280_temperature;BME280_humidity;BME280_pressure;Samples;Min_cycle;Max_cycle;Signal;HPM_P1;HPM_P2
2023/10/16 00:01:22;;;;;;;1.88;0.75;;;13.40;76.80;;;;;;5072363;28;20032;-77
2023/10/16 00:03:50;;;;;;;1.52;0.55;;;13.40;76.70;;;;;;5072308;28;20020;-77
2023/10/16 00:06:19;;;;;;;1.20;0.70;;;13.40;77.20;;;;;;5072948;28;20033;-77
2023/10/16 00:08:48;;;;;;;1.60;0.60;;;13.40;77.70;;;;;;5072700;28;20062;-77
2023/10/16 00:11:24;;;;;;;2.15;0.70;;;13.40;77.30;;;;;;5073029;28;20028;-78
2023/10/16 00:13:51;;;;;;;1.60;0.60;;;13.40;77.30;;;;;;5072945;28;20107;-77
2023/10/16 00:16:23;;;;;;;1.73;0.50;;;13.40;77.10;;;;;;5072725;28;20037;-78
2023/10/16 00:18:52;;;;;;;1.38;0.43;;;13.30;76.40;;;;;;5073094;28;20032;-78
2023/10/16 00:21:18;;;;;;;1.77;0.63;;;13.30;76.60;;;;;;5076877;28;20024;-78
2023/10/16 00:23:45;;;;;;;1.25;0.40;;;13.30;76.50;;;;;;5076772;28;20025;-77
2023/10/16 00:26:16;;;;;;;1.30;0.60;;;13.30;76.90;;;;;;5076588;28;20100;-78
2023/10/16 00:28:45;;;;;;;1.52;0.50;;;13.30;76.60;;;;;;5076564;28;20032;-77
2023/10/16 00:31:20;;;;;;;2.00;0.60;;;13.30;76.40;;;;;;5076731;28;20107;-76
2023/10/16 00:33:49;;;;;;;1.88;0.70;;;13.30;76.90;;;;;;5076519;28;20025;-77
2023/10/16 00:36:17;;;;;;;2.60;1.05;;;13.20;76.90;;;;;;5076227;28;20046;-78
2023/10/16 00:38:51;;;;;;;5.97;1.35;;;13.30;76.80;;;;;;5076322;28;20028;-77
2023/10/16 00:41:21;;;;;;;4.35;0.73;;;13.30;75.90;;;;;;5076327;28;20048;-77
2023/10/16 00:43:48;;;;;;;0.90;0.50;;;13.30;74.70;;;;;;5076234;28;20024;-78
2023/10/16 00:46:37;;;;;;;0.93;0.50;;;13.20;74.70;;;;;;5075991;28;20472;-77
2023/10/16 00:49:06;;;;;;;1.63;0.68;;;13.20;75.10;;;;;;5075720;28;20557;-77
2023/10/16 00:51:35;;;;;;;2.10;0.50;;;13.20;74.90;;;;;;5075775;28;20021;-77
2023/10/16 00:54:03;;;;;;;2.22;0.50;;;13.20;75.50;;;;;;5075763;28;20443;-77
2023/10/16 00:56:29;;;;;;;5.15;0.80;;;13.20;75.40;;;;;;5076130;28;20021;-77
2023/10/16 00:58:56;;;;;;;1.40;0.50;;;13.20;76.00;;;;;;5073778;28;20021;-77
2023/10/16 01:01:26;;;;;;;1.40;0.50;;;13.10;74.80;;;;;;5073320;28;20032;-77
2023/10/16 01:03:57;;;;;;;3.55;0.50;;;13.10;75.80;;;;;;5073582;28;20099;-78
2023/10/16 01:06:40;;;;;;;2.10;0.80;;;13.10;76.90;;;;;;5074188;28;20029;-78
2023/10/16 01:09:17;;;;;;;2.65;0.60;;;13.10;76.80;;;;;;5075452;28;20035;-77
2023/10/16 01:11:43;;;;;;;1.85;0.47;;;13.10;76.00;;;;;;5075270;28;20036;-78
2023/10/16 01:14:12;;;;;;;1.75;0.60;;;13.10;76.00;;;;;;5075242;28;20032;-77
2023/10/16 01:16:38;;;;;;;1.83;0.55;;;13.00;76.40;;;;;;5075711;28;20024;-78
2023/10/16 01:19:06;;;;;;;1.52;0.60;;;13.00;76.30;;;;;;5075638;28;20036;-77
2023/10/16 01:21:33;;;;;;;1.38;0.63;;;12.90;75.90;;;;;;5074967;28;20025;-78
2023/10/16 01:24:12;;;;;;;2.40;0.73;;;12.90;76.00;;;;;;5075363;28;20020;-79
2023/10/16 01:26:42;;;;;;;2.92;0.50;;;12.90;76.30;;;;;;5075308;28;20089;-78
2023/10/16 01:29:09;;;;;;;1.98;0.68;;;12.80;77.10;;;;;;5075433;28;20029;-78
2023/10/16 01:31:36;;;;;;;3.08;0.80;;;12.60;76.80;;;;;;5074504;28;20024;-78
2023/10/16 01:34:12;;;;;;;4.00;0.70;;;12.70;77.80;;;;;;5075486;28;20119;-78
2023/10/16 01:36:47;;;;;;;3.85;0.82;;;12.60;78.00;;;;;;5074971;28;20166;-79
2023/10/16 01:42:03;;;;;;;1.23;0.80;;;12.50;78.00;;;;;;5075295;28;20105;-78
2023/10/16 01:44:29;;;;;;;1.10;0.63;;;12.40;77.90;;;;;;5074509;28;20054;-78
2023/10/16 01:46:56;;;;;;;1.02;0.52;;;12.30;78.60;;;;;;5075241;28;20033;-76
2023/10/16 01:49:24;;;;;;;1.17;0.47;;;12.40;78.40;;;;;;5074859;28;20089;-78
2023/10/16 01:51:56;;;;;;;1.70;0.73;;;12.30;79.80;;;;;;5075224;28;20032;-79
2023/10/16 01:54:22;;;;;;;1.83;0.50;;;12.30;77.30;;;;;;5074925;28;20166;-77
2023/10/16 01:56:49;;;;;;;1.73;0.77;;;12.30;78.10;;;;;;5074817;28;20048;-77
2023/10/16 01:59:16;;;;;;;1.60;0.60;;;12.20;77.70;;;;;;5074443;28;20534;-78
2023/10/16 02:01:42;;;;;;;3.30;0.60;;;12.20;78.60;;;;;;5074882;28;20020;-78
2023/10/16 02:04:08;;;;;;;1.15;0.60;;;12.20;79.20;;;;;;5074575;28;20086;-78
2023/10/16 02:06:34;;;;;;;2.45;0.70;;;12.20;77.80;;;;;;5074736;28;20024;-78
2023/10/16 02:09:00;;;;;;;1.63;0.75;;;12.20;79.00;;;;;;5074953;28;20111;-77
2023/10/16 02:11:26;;;;;;;3.55;0.75;;;12.20;79.30;;;;;;5074677;28;20071;-78
2023/10/16 02:13:52;;;;;;;1.55;0.63;;;12.20;79.60;;;;;;5074395;28;20388;-78
2023/10/16 02:16:23;;;;;;;2.72;0.60;;;12.20;78.70;;;;;;5074582;28;20067;-78
2023/10/16 02:18:51;;;;;;;3.25;0.60;;;12.10;77.20;;;;;;5074726;28;20012;-78
2023/10/16 02:21:22;;;;;;;1.15;0.63;;;12.10;78.30;;;;;;5074356;28;20119;-78
2023/10/16 02:23:48;;;;;;;1.92;0.80;;;12.10;79.30;;;;;;5074607;28;20025;-77
2023/10/16 02:26:18;;;;;;;1.85;0.60;;;12.10;79.70;;;;;;5073080;28;20104;-78
2023/10/16 02:29:05;;;;;;;2.90;0.80;;;12.10;80.00;;;;;;5074320;28;20107;-77
2023/10/16 02:31:31;;;;;;;1.88;0.75;;;12.10;80.00;;;;;;5073977;28;20032;-78
2023/10/16 02:34:12;;;;;;;4.15;0.70;;;12.20;79.60;;;;;;5073792;28;20021;-78
2023/10/16 02:36:40;;;;;;;1.20;0.57;;;12.10;78.40;;;;;;5074352;28;20025;-78
2023/10/16 02:39:08;;;;;;;1.27;0.65;;;12.10;78.90;;;;;;5073847;28;20029;-78
2023/10/16 02:41:34;;;;;;;1.23;0.63;;;12.10;79.40;;;;;;5073900;28;20127;-77
2023/10/16 02:44:05;;;;;;;2.05;0.70;;;12.00;79.60;;;;;;5073881;28;20496;-78
2023/10/16 02:46:31;;;;;;;1.73;0.65;;;12.10;80.20;;;;;;5074194;28;20025;-77
2023/10/16 02:48:58;;;;;;;1.70;0.70;;;12.10;80.00;;;;;;5073562;28;20053;-77
2023/10/16 02:51:33;;;;;;;2.03;0.50;;;12.10;80.40;;;;;;5073903;28;20107;-78
2023/10/16 02:54:00;;;;;;;1.30;0.60;;;12.00;80.20;;;;;;5073981;28;20061;-77
2023/10/16 02:56:31;;;;;;;2.25;0.70;;;12.00;80.40;;;;;;5073525;28;20431;-78
2023/10/16 02:58:57;;;;;;;1.67;0.70;;;12.00;81.10;;;;;;5073861;28;20024;-78
2023/10/16 03:01:23;;;;;;;1.48;0.50;;;12.00;81.10;;;;;;5073422;28;20070;-76
2023/10/16 03:03:49;;;;;;;0.95;0.65;;;12.00;80.90;;;;;;5073535;28;20096;-78
2023/10/16 03:06:16;;;;;;;1.50;0.60;;;11.90;80.60;;;;;;5073744;28;20067;-77
2023/10/16 03:09:13;;;;;;;2.17;0.70;;;11.90;80.80;;;;;;5073853;28;20024;-78
2023/10/16 03:11:47;;;;;;;1.23;0.65;;;11.90;81.00;;;;;;5073659;28;20020;-78
2023/10/16 03:14:12;;;;;;;0.95;0.60;;;11.90;80.90;;;;;;5073292;28;20115;-78
2023/10/16 03:16:38;;;;;;;1.50;0.60;;;11.90;81.00;;;;;;5073480;28;20103;-78
2023/10/16 03:19:09;;;;;;;1.58;0.70;;;11.80;81.30;;;;;;5073356;28;20027;-77
2023/10/16 03:21:35;;;;;;;1.77;0.70;;;11.80;81.70;;;;;;5073363;28;20021;-79
2023/10/16 03:24:04;;;;;;;3.78;0.73;;;11.90;82.20;;;;;;5073472;28;20043;-78
2023/10/16 03:26:32;;;;;;;2.40;0.65;;;11.80;80.80;;;;;;5073581;28;20371;-77
2023/10/16 03:29:02;;;;;;;6.25;0.88;;;11.80;80.40;;;;;;5073261;28;20048;-78
2023/10/16 03:31:29;;;;;;;1.95;0.60;;;11.80;80.90;;;;;;5073148;28;20025;-77
2023/10/16 03:33:55;;;;;;;3.53;0.90;;;11.80;81.00;;;;;;5073560;28;20077;-76
2023/10/16 03:36:22;;;;;;;1.65;0.73;;;11.90;80.90;;;;;;5073064;28;20029;-78
2023/10/16 03:38:52;;;;;;;1.20;0.50;;;11.80;80.20;;;;;;5072712;28;20021;-77
2023/10/16 03:43:57;;;;;;;1.95;0.90;;;11.90;79.90;;;;;;5072989;28;20375;-77
2023/10/16 03:46:29;;;;;;;2.55;0.63;;;11.90;79.50;;;;;;5073049;28;20036;-77
2023/10/16 03:48:55;;;;;;;2.05;1.08;;;11.90;79.20;;;;;;5072983;28;20076;-78
2023/10/16 03:51:21;;;;;;;1.52;0.60;;;11.90;79.00;;;;;;5072910;28;20021;-77
2023/10/16 03:53:51;;;;;;;1.08;0.70;;;11.90;78.20;;;;;;5073134;28;20028;-78
2023/10/16 03:56:17;;;;;;;1.45;0.63;;;11.90;78.00;;;;;;5077542;28;20040;-78
2023/10/16 03:58:46;;;;;;;0.63;0.40;;;11.90;77.60;;;;;;5077286;28;20027;-77
2023/10/16 04:01:12;;;;;;;1.13;0.50;;;11.90;77.70;;;;;;5077107;28;20078;-78
2023/10/16 04:03:49;;;;;;;1.70;0.60;;;11.90;77.90;;;;;;5076994;28;20017;-77
2023/10/16 04:06:20;;;;;;;2.25;0.70;;;11.90;77.40;;;;;;5073103;28;20082;-73
2023/10/16 04:08:49;;;;;;;2.00;0.63;;;11.90;77.80;;;;;;5076461;28;20020;-77
2023/10/16 04:11:16;;;;;;;2.17;0.80;;;11.90;77.90;;;;;;5076840;28;20052;-77
2023/10/16 04:13:48;;;;;;;1.58;0.70;;;11.90;78.80;;;;;;5076935;28;20384;-76
2023/10/16 04:16:30;;;;;;;1.27;0.70;;;11.90;79.20;;;;;;5076666;28;20116;-77
2023/10/16 04:19:20;;;;;;;1.05;0.70;;;11.90;79.90;;;;;;5076694;28;20431;-74
2023/10/16 04:21:45;;;;;;;3.08;0.80;;;11.80;79.60;;;;;;5076621;28;20052;-78
2023/10/16 04:26:57;;;;;;;1.15;0.60;;;11.90;79.50;;;;;;5076733;28;20121;-76
2023/10/16 04:29:26;;;;;;;2.10;0.70;;;11.80;79.10;;;;;;5076501;28;20021;-78
2023/10/16 04:31:55;;;;;;;2.30;0.90;;;11.80;78.40;;;;;;5076002;28;20028;-78
2023/10/16 04:45:38;;;;;;;2.13;0.70;;;11.80;78.10;;;;;;5076303;28;20052;-77
2023/10/16 04:50:37;;;;;;;2.75;0.90;;;11.70;76.80;;;;;;5076425;28;20029;-73
2023/10/16 04:53:12;;;;;;;;;;;11.70;77.20;;;;;;5075415;28;20029;-77
2023/10/16 04:58:38;;;;;;;1.63;0.70;;;11.70;76.50;;;;;;5075631;28;20033;-78
2023/10/16 05:03:56;;;;;;;1.05;0.60;;;11.70;75.80;;;;;;5055340;28;20044;-76
2023/10/16 05:06:38;;;;;;;1.73;0.77;;;11.70;75.40;;;;;;5055088;28;20075;-77
2023/10/16 05:18:12;;;;;;;1.20;0.55;;;11.80;75.30;;;;;;4955383;29;20110;-77
2023/10/16 05:21:16;;;;;;;1.17;0.60;;;11.80;74.90;;;;;;4986645;28;20093;-78
2023/10/16 06:16:02;;;;;;;2.65;0.80;;;12.00;75.80;;;;;;5071609;28;20075;-77
2023/10/16 06:18:31;;;;;;;2.55;0.73;;;12.00;75.50;;;;;;5053511;28;20028;-77
2023/10/16 06:21:02;;;;;;;1.52;0.60;;;12.00;75.50;;;;;;5053807;28;20098;-78
2023/10/16 06:23:33;;;;;;;2.25;0.90;;;12.10;75.90;;;;;;5053589;28;20112;-77
2023/10/16 06:26:07;;;;;;;2.97;0.98;;;12.10;76.20;;;;;;5053793;28;20507;-79
2023/10/16 06:28:34;;;;;;;1.45;0.73;;;12.10;76.00;;;;;;5053409;28;20051;-77
2023/10/16 06:31:05;;;;;;;1.48;0.68;;;12.10;76.20;;;;;;5053629;28;20017;-77
2023/10/16 06:33:31;;;;;;;0.95;0.60;;;12.10;76.80;;;;;;5053536;28;20027;-77
2023/10/16 06:35:58;;;;;;;3.72;0.52;;;12.10;77.10;;;;;;5053609;28;20116;-77
2023/10/16 06:38:24;;;;;;;1.45;0.77;;;12.10;77.60;;;;;;5053609;28;20435;-76
2023/10/16 06:40:55;;;;;;;3.53;0.60;;;12.10;77.20;;;;;;5053245;28;20044;-78
2023/10/16 06:43:25;;;;;;;2.45;0.80;;;12.20;76.00;;;;;;5052291;28;20029;-78
2023/10/16 06:45:58;;;;;;;2.53;0.77;;;12.20;75.00;;;;;;5053483;28;20017;-77
2023/10/16 06:48:28;;;;;;;1.67;0.50;;;12.30;75.00;;;;;;5053132;28;20510;-77
2023/10/16 06:51:03;;;;;;;4.22;0.80;;;12.30;75.60;;;;;;5053044;28;20021;-77
2023/10/16 06:53:30;;;;;;;1.10;0.70;;;12.30;75.00;;;;;;5053283;28;20020;-76
2023/10/16 06:55:56;;;;;;;1.45;0.70;;;12.40;75.10;;;;;;5052422;28;20040;-76
2023/10/16 06:58:23;;;;;;;2.65;0.90;;;12.40;74.90;;;;;;5051324;28;20029;-76
2023/10/16 07:00:52;;;;;;;1.42;0.60;;;12.50;75.10;;;;;;5053069;28;20036;-74
2023/10/16 07:03:17;;;;;;;2.00;0.70;;;12.50;74.90;;;;;;5052404;28;20461;-78
2023/10/16 07:05:43;;;;;;;1.42;0.63;;;12.60;74.30;;;;;;5053096;28;20032;-76
2023/10/16 07:08:11;;;;;;;2.85;0.60;;;12.60;73.90;;;;;;5052651;28;20025;-76
2023/10/16 07:10:48;;;;;;;2.35;0.90;;;12.70;74.00;;;;;;5053075;28;20029;-76
2023/10/16 07:13:27;;;;;;;1.90;0.60;;;12.70;74.00;;;;;;5052742;28;20471;-76
2023/10/16 07:16:00;;;;;;;2.83;1.00;;;12.80;74.00;;;;;;5052359;28;20040;-75
2023/10/16 07:18:32;;;;;;;2.33;0.75;;;12.80;73.60;;;;;;5052551;28;20028;-76
2023/10/16 07:23:34;;;;;;;4.93;0.70;;;12.80;73.10;;;;;;5052444;28;20029;-75
2023/10/16 07:26:04;;;;;;;1.42;0.77;;;12.90;73.30;;;;;;5052433;28;20035;-75
2023/10/16 07:28:31;;;;;;;2.50;1.30;;;12.90;73.40;;;;;;5052033;28;20025;-76
2023/10/16 07:31:05;;;;;;;5.30;0.93;;;12.90;73.50;;;;;;5052286;28;20032;-76
2023/10/16 07:33:32;;;;;;;1.35;0.65;;;13.00;74.40;;;;;;5052243;28;20052;-75
2023/10/16 07:35:59;;;;;;;3.75;0.85;;;13.00;73.60;;;;;;5052262;28;20041;-76
2023/10/16 07:38:26;;;;;;;1.70;0.85;;;13.00;73.20;;;;;;5052828;28;20096;-75
2023/10/16 07:40:54;;;;;;;4.25;0.80;;;13.10;72.70;;;;;;5052356;28;20029;-78
2023/10/16 07:43:32;;;;;;;2.10;0.75;;;13.10;72.60;;;;;;5052969;28;20522;-78
2023/10/16 07:48:52;;;;;;;4.20;0.80;;;13.20;72.70;;;;;;5052598;28;20041;-77
2023/10/16 07:51:20;;;;;;;2.47;0.82;;;13.20;72.40;;;;;;5051092;28;20071;-77
2023/10/16 07:53:50;;;;;;;2.30;0.85;;;13.30;72.00;;;;;;5050434;28;20469;-76
2023/10/16 07:59:06;;;;;;;1.38;0.68;;;13.40;71.90;;;;;;5051537;28;20029;-77
2023/10/16 08:01:41;;;;;;;3.28;0.57;;;13.40;71.10;;;;;;5051780;28;20028;-74
2023/10/16 08:04:19;;;;;;;1.88;0.57;;;13.50;70.40;;;;;;5051596;28;20025;-74
2023/10/16 08:06:52;;;;;;;0.73;0.50;;;13.50;70.10;;;;;;5050743;28;20086;-74
2023/10/16 08:11:52;;;;;;;1.45;0.70;;;13.60;68.30;;;;;;5052804;28;20116;-74
2023/10/16 08:14:19;;;;;;;4.00;0.80;;;13.60;68.80;;;;;;5052554;28;20028;-73
2023/10/16 08:16:44;;;;;;;1.20;0.80;;;13.70;69.00;;;;;;5051336;28;20016;-73
2023/10/16 08:19:16;;;;;;;0.90;0.47;;;13.70;68.80;;;;;;5051301;28;20021;-73
2023/10/16 08:21:45;;;;;;;1.08;0.47;;;13.70;68.40;;;;;;5051396;28;20487;-74
2023/10/16 08:24:14;;;;;;;1.17;0.60;;;13.70;68.40;;;;;;5051354;28;20423;-73
2023/10/16 08:26:43;;;;;;;1.30;0.40;;;13.80;67.10;;;;;;5051564;28;20029;-74
2023/10/16 08:29:12;;;;;;;0.88;0.40;;;13.80;67.00;;;;;;5051562;28;20054;-74
2023/10/16 08:31:41;;;;;;;0.65;0.35;;;13.80;66.20;;;;;;5052253;28;20036;-73
2023/10/16 08:34:24;;;;;;;1.13;0.60;;;13.90;65.80;;;;;;5052718;28;20096;-73
2023/10/16 08:36:53;;;;;;;5.20;0.60;;;14.00;65.70;;;;;;5052547;28;20037;-73
2023/10/16 08:39:21;;;;;;;3.40;0.77;;;14.00;65.20;;;;;;5052394;28;20043;-74
2023/10/16 08:41:53;;;;;;;0.90;0.40;;;14.00;65.30;;;;;;5055797;28;20036;-74
2023/10/16 08:44:22;;;;;;;1.52;0.85;;;14.00;64.50;;;;;;5056469;28;20464;-73
2023/10/16 08:49:24;;;;;;;3.97;0.90;;;14.10;64.10;;;;;;5055574;28;20044;-72
2023/10/16 08:51:54;;;;;;;1.30;0.50;;;14.20;63.60;;;;;;5054927;28;20092;-74
2023/10/16 08:57:09;;;;;;;0.50;0.40;;;14.20;63.80;;;;;;5056231;28;20139;-76
2023/10/16 08:59:37;;;;;;;3.80;0.38;;;14.30;63.90;;;;;;5055940;28;20480;-73
2023/10/16 09:02:11;;;;;;;1.02;0.50;;;14.30;62.90;;;;;;5055550;28;20029;-73
2023/10/16 09:04:41;;;;;;;1.77;0.70;;;14.40;62.30;;;;;;5055696;28;20022;-73
2023/10/16 09:07:11;;;;;;;1.23;0.68;;;14.40;62.40;;;;;;5055553;28;20056;-73
2023/10/16 09:09:41;;;;;;;2.30;0.93;;;14.40;62.50;;;;;;5055822;28;20110;-73
2023/10/16 09:12:28;;;;;;;2.03;0.50;;;14.40;62.10;;;;;;5055518;28;20017;-73
2023/10/16 09:15:05;;;;;;;0.80;0.40;;;14.50;62.30;;;;;;5055606;28;20029;-79
2023/10/16 09:17:35;;;;;;;1.23;0.25;;;14.60;62.00;;;;;;5055848;28;20028;-77
2023/10/16 09:20:33;;;;;;;1.17;0.40;;;14.60;62.50;;;;;;5055636;28;20455;-78
2023/10/16 09:23:02;;;;;;;2.63;0.57;;;14.60;62.20;;;;;;5055318;28;20036;-78
2023/10/16 09:25:32;;;;;;;3.72;0.55;;;14.70;61.60;;;;;;5055060;28;20048;-78
2023/10/16 09:28:01;;;;;;;1.25;0.45;;;14.70;62.00;;;;;;5055726;28;20036;-78
2023/10/16 09:30:32;;;;;;;3.72;0.45;;;14.70;61.20;;;;;;5055532;28;20036;-79
2023/10/16 09:32:58;;;;;;;3.20;0.57;;;14.70;61.30;;;;;;5055237;28;20025;-81
2023/10/16 09:35:32;;;;;;;0.90;0.50;;;14.80;61.40;;;;;;5054997;28;20041;-78
2023/10/16 09:38:17;;;;;;;1.33;0.50;;;14.80;59.70;;;;;;5055211;28;20043;-77
2023/10/16 09:44:36;;;;;;;2.35;0.50;;;14.90;59.50;;;;;;5055473;28;20112;-78
2023/10/16 09:49:21;;;;;;;1.20;0.40;;;14.90;60.10;;;;;;5054459;28;20091;-77
2023/10/16 09:51:57;;;;;;;2.03;0.68;;;14.90;59.50;;;;;;5053847;28;20025;-77
2023/10/16 09:54:26;;;;;;;1.10;0.50;;;14.90;59.70;;;;;;5054713;28;20060;-78
2023/10/16 09:57:00;;;;;;;1.65;0.55;;;14.90;60.50;;;;;;5054537;28;20033;-79
2023/10/16 09:59:33;;;;;;;1.15;0.63;;;15.00;60.50;;;;;;5054887;28;20519;-80
2023/10/16 10:05:08;;;;;;;1.25;0.50;;;15.10;60.60;;;;;;5053025;28;20037;-75
2023/10/16 10:07:47;;;;;;;1.20;0.50;;;15.20;59.40;;;;;;5053489;28;20021;-74
2023/10/16 10:13:10;;;;;;;4.60;0.85;;;15.30;59.70;;;;;;5053313;28;20090;-75
2023/10/16 10:16:06;;;;;;;1.55;0.73;;;15.30;59.00;;;;;;5052891;28;20040;-76
2023/10/16 10:18:33;;;;;;;1.30;0.50;;;15.40;58.10;;;;;;5051035;28;20082;-76
2023/10/16 10:21:11;;;;;;;2.58;0.80;;;15.40;58.50;;;;;;5054260;28;20025;-76
2023/10/16 10:24:15;;;;;;;1.23;0.50;;;15.40;58.70;;;;;;5053819;28;20112;-75
2023/10/16 10:26:59;;;;;;;1.50;0.50;;;15.50;56.80;;;;;;5042657;28;20044;-77
2023/10/16 10:29:25;;;;;;;1.17;0.40;;;15.60;56.80;;;;;;5054148;28;20366;-77
2023/10/16 10:32:06;;;;;;;0.90;0.57;;;15.60;56.70;;;;;;5054455;28;20051;-78
2023/10/16 10:34:37;;;;;;;1.05;0.50;;;15.60;57.40;;;;;;5054126;28;20025;-77
2023/10/16 10:37:48;;;;;;;1.42;0.55;;;15.70;58.00;;;;;;5052556;28;20047;-75
2023/10/16 10:40:22;;;;;;;2.28;0.50;;;15.70;57.80;;;;;;5053955;28;20428;-76
2023/10/16 10:42:53;;;;;;;2.40;0.73;;;15.80;57.50;;;;;;5054220;28;20044;-77
2023/10/16 10:45:36;;;;;;;2.70;0.43;;;15.80;57.50;;;;;;5054022;28;20373;-76
2023/10/16 10:48:11;;;;;;;;;;;15.90;56.00;;;;;;5053877;28;20128;-76
2023/10/16 10:50:39;;;;;;;1.83;0.60;;;15.90;53.80;;;;;;5053270;28;20008;-75
2023/10/16 10:53:15;;;;;;;1.00;0.52;;;16.00;55.40;;;;;;5053372;28;20392;-75
2023/10/16 10:55:56;;;;;;;2.42;0.50;;;16.00;54.80;;;;;;5054032;28;20462;-77
2023/10/16 10:58:31;;;;;;;3.15;0.68;;;16.00;54.10;;;;;;5053801;28;20021;-76
2023/10/16 11:01:26;;;;;;;1.08;0.60;;;16.00;55.10;;;;;;5053261;28;20104;-76
2023/10/16 11:03:53;;;;;;;1.67;0.65;;;16.00;54.10;;;;;;5053249;28;20452;-75
2023/10/16 11:06:22;;;;;;;1.08;0.38;;;16.10;53.90;;;;;;5053041;28;20388;-75
2023/10/16 11:08:50;;;;;;;0.68;0.30;;;16.10;52.70;;;;;;5053176;28;20025;-75
2023/10/16 11:11:22;;;;;;;1.27;0.30;;;16.10;52.80;;;;;;5053141;28;20461;-75
2023/10/16 11:13:51;;;;;;;1.42;0.40;;;16.10;52.50;;;;;;5053455;28;20433;-75
2023/10/16 11:16:18;;;;;;;1.05;0.40;;;16.10;51.30;;;;;;5053151;28;20033;-75
2023/10/16 11:19:29;;;;;;;0.73;0.38;;;16.10;50.50;;;;;;5053213;28;20025;-75
2023/10/16 11:21:56;;;;;;;0.75;0.40;;;16.10;49.60;;;;;;5031091;28;20060;-75
2023/10/16 11:24:25;;;;;;;1.17;0.40;;;16.00;49.40;;;;;;5030955;28;20029;-76
2023/10/16 11:26:54;;;;;;;1.52;0.70;;;16.00;50.90;;;;;;5042712;28;20391;-76
2023/10/16 11:29:20;;;;;;;1.15;0.55;;;15.90;52.20;;;;;;5052092;28;20029;-76
2023/10/16 11:31:47;;;;;;;1.60;0.68;;;15.90;51.90;;;;;;5052473;28;20354;-75
2023/10/16 11:34:21;;;;;;;1.20;0.40;;;16.00;52.80;;;;;;5052692;28;20088;-76
2023/10/16 11:36:50;;;;;;;2.47;0.40;;;16.00;54.10;;;;;;5052051;28;20041;-75
2023/10/16 11:39:19;;;;;;;1.80;0.57;;;16.00;52.30;;;;;;5051321;28;20028;-75
2023/10/16 11:41:46;;;;;;;1.17;0.40;;;16.00;51.60;;;;;;5051596;28;20037;-76
2023/10/16 11:44:16;;;;;;;2.72;0.60;;;16.00;50.40;;;;;;5051687;28;20389;-77
2023/10/16 11:46:45;;;;;;;1.40;0.45;;;16.00;50.80;;;;;;5050152;28;20170;-76
2023/10/16 11:51:50;;;;;;;1.13;0.35;;;16.10;51.00;;;;;;5050887;28;20032;-76
2023/10/16 11:54:22;;;;;;;1.63;0.43;;;16.00;51.50;;;;;;5050871;28;20021;-76
2023/10/16 11:56:52;;;;;;;1.15;0.30;;;16.10;51.90;;;;;;5048950;28;20420;-77
2023/10/16 11:59:21;;;;;;;4.68;1.25;;;16.10;51.10;;;;;;5050204;28;20451;-75
2023/10/16 12:01:51;;;;;;;1.42;0.55;;;16.20;50.20;;;;;;5050275;28;20441;-75
2023/10/16 12:04:20;;;;;;;3.47;0.50;;;16.20;50.20;;;;;;5049863;28;20024;-76
2023/10/16 12:06:57;;;;;;;2.35;0.80;;;16.20;51.50;;;;;;5051982;28;20029;-77
2023/10/16 12:09:25;;;;;;;1.67;0.40;;;16.20;51.80;;;;;;5052859;28;20032;-76
2023/10/16 12:11:55;;;;;;;3.47;0.40;;;16.20;51.00;;;;;;5052605;28;20373;-77
2023/10/16 12:14:23;;;;;;;1.70;0.35;;;16.20;49.30;;;;;;5050071;28;20075;-75
2023/10/16 12:16:49;;;;;;;0.88;0.50;;;16.30;50.10;;;;;;5055309;28;20047;-77
2023/10/16 12:19:19;;;;;;;2.35;0.50;;;16.20;49.60;;;;;;5053768;28;20017;-77
2023/10/16 12:21:52;;;;;;;0.73;0.40;;;16.20;50.10;;;;;;5055124;28;20039;-77
2023/10/16 12:24:20;;;;;;;1.30;0.40;;;16.20;50.20;;;;;;5055129;28;20033;-76
2023/10/16 12:26:46;;;;;;;1.95;0.57;;;16.20;50.20;;;;;;5055300;28;20330;-76
2023/10/16 12:29:12;;;;;;;1.23;0.47;;;16.20;50.20;;;;;;5055645;28;20088;-76
2023/10/16 12:31:42;;;;;;;2.22;0.43;;;16.10;50.30;;;;;;5056413;28;20032;-76
2023/10/16 12:34:11;;;;;;;1.73;0.43;;;16.10;51.00;;;;;;5056470;28;20029;-76
2023/10/16 12:36:38;;;;;;;1.42;0.30;;;16.10;51.60;;;;;;5056319;28;20435;-77
2023/10/16 12:39:16;;;;;;;6.18;0.60;;;16.00;51.70;;;;;;5056107;28;20021;-76
2023/10/16 12:41:43;;;;;;;1.15;0.40;;;16.00;51.90;;;;;;5056422;28;20384;-77
2023/10/16 12:44:10;;;;;;;0.90;0.52;;;16.10;51.80;;;;;;5054633;28;20411;-76
2023/10/16 12:46:38;;;;;;;0.80;0.40;;;16.10;51.00;;;;;;5055937;28;20099;-77
2023/10/16 12:49:08;;;;;;;1.20;0.52;;;16.00;51.20;;;;;;5054549;28;20045;-77
2023/10/16 12:51:43;;;;;;;2.38;0.40;;;16.10;51.70;;;;;;5053698;28;20108;-78
2023/10/16 12:54:12;;;;;;;1.20;0.43;;;16.00;51.30;;;;;;5053841;28;20037;-76
2023/10/16 12:56:43;;;;;;;1.10;0.40;;;16.10;51.10;;;;;;5054431;28;20411;-76
2023/10/16 12:59:12;;;;;;;3.00;0.60;;;16.10;51.60;;;;;;5055314;28;20384;-76
2023/10/16 13:01:38;;;;;;;1.75;0.55;;;16.10;51.60;;;;;;5055814;28;20033;-79
2023/10/16 13:04:13;;;;;;;1.23;0.40;;;16.10;51.50;;;;;;5054442;28;20028;-77
2023/10/16 13:06:39;;;;;;;1.45;0.40;;;16.20;50.70;;;;;;5054717;28;20125;-76
2023/10/16 13:09:15;;;;;;;0.90;0.50;;;16.20;51.90;;;;;;5054542;28;20025;-76
2023/10/16 13:11:46;;;;;;;1.63;0.40;;;16.30;50.20;;;;;;5053891;28;20021;-76
2023/10/16 13:14:17;;;;;;;3.88;0.70;;;16.30;51.10;;;;;;5055054;28;20029;-78
2023/10/16 13:16:58;;;;;;;1.50;0.57;;;16.30;51.30;;;;;;5054330;28;20040;-78
2023/10/16 13:19:27;;;;;;;1.48;0.60;;;16.30;51.70;;;;;;5055145;28;20021;-76
2023/10/16 13:21:53;;;;;;;1.20;0.50;;;16.30;50.90;;;;;;5055409;28;20024;-76
2023/10/16 13:24:23;;;;;;;0.82;0.50;;;16.30;50.30;;;;;;5055187;28;20388;-75
2023/10/16 13:26:52;;;;;;;2.35;0.77;;;16.30;51.30;;;;;;5053905;28;20441;-75
2023/10/16 13:29:18;;;;;;;1.90;0.60;;;16.30;51.20;;;;;;5074969;28;20056;-75
2023/10/16 13:31:48;;;;;;;1.20;0.47;;;16.30;50.20;;;;;;5075297;28;20428;-76
2023/10/16 13:34:15;;;;;;;0.90;0.50;;;16.30;51.70;;;;;;5074841;28;20443;-82
2023/10/16 13:36:47;;;;;;;5.05;0.82;;;16.20;50.80;;;;;;5072377;28;20123;-82
2023/10/16 13:39:17;;;;;;;1.30;0.50;;;16.20;50.70;;;;;;5062191;28;20459;-83
2023/10/16 13:42:01;;;;;;;1.58;0.60;;;16.20;51.20;;;;;;5051938;28;20511;-85
2023/10/16 13:44:32;;;;;;;1.55;0.60;;;16.10;51.00;;;;;;5051849;28;20389;-82
2023/10/16 13:46:59;;;;;;;3.10;0.43;;;16.10;50.80;;;;;;5051307;28;20377;-78
2023/10/16 13:49:25;;;;;;;7.57;1.80;;;16.00;51.50;;;;;;5051936;28;20056;-79
2023/10/16 13:51:53;;;;;;;1.75;0.65;;;16.10;52.00;;;;;;5073433;28;20036;-81
2023/10/16 13:54:19;;;;;;;7.15;1.60;;;16.00;52.50;;;;;;5074457;28;20037;-79
2023/10/16 13:56:46;;;;;;;5.43;1.00;;;16.10;52.60;;;;;;5074222;28;20124;-84
2023/10/16 13:59:18;;;;;;;4.63;0.80;;;16.10;51.20;;;;;;5074264;28;20095;-79
2023/10/16 14:01:46;;;;;;;2.05;0.60;;;16.00;52.20;;;;;;5074175;28;20430;-84
2023/10/16 14:04:25;;;;;;;2.65;0.60;;;16.00;52.40;;;;;;5073896;28;20085;-83
2023/10/16 14:06:59;;;;;;;2.20;0.90;;;16.00;52.10;;;;;;5073541;28;20048;-84
2023/10/16 14:09:28;;;;;;;3.97;0.50;;;15.90;52.90;;;;;;5074151;28;20043;-79
2023/10/16 14:11:58;;;;;;;1.60;0.70;;;16.00;53.30;;;;;;5074138;28;20036;-82
2023/10/16 14:14:33;;;;;;;2.25;0.70;;;15.90;53.10;;;;;;5073525;28;20062;-80
2023/10/16 14:17:37;;;;;;;1.58;0.70;;;15.90;53.30;;;;;;5072583;28;20031;-81
2023/10/16 14:19:51;;;;;;;1.10;0.50;;;15.90;54.10;;;;;;5052981;28;20037;-78
2023/10/16 14:22:23;;;;;;;1.80;0.65;;;15.90;54.30;;;;;;5053871;28;20072;-82
2023/10/16 14:24:48;;;;;;;1.83;0.63;;;15.90;54.00;;;;;;5054042;28;20114;-77
2023/10/16 14:27:24;;;;;;;2.08;0.75;;;15.90;53.10;;;;;;5053904;28;20481;-80
2023/10/16 14:29:58;;;;;;;2.03;0.60;;;15.80;53.10;;;;;;5053666;28;20024;-81
2023/10/16 14:32:24;;;;;;;4.18;0.70;;;15.80;53.20;;;;;;5053946;28;20128;-81
2023/10/16 14:34:50;;;;;;;2.28;0.68;;;15.70;53.80;;;;;;5054187;28;20108;-81
2023/10/16 14:37:19;;;;;;;2.75;0.70;;;15.70;54.40;;;;;;5052447;28;20088;-81
2023/10/16 14:39:46;;;;;;;5.05;0.70;;;15.70;54.30;;;;;;5053047;28;20017;-81
2023/10/16 14:42:12;;;;;;;2.22;0.82;;;15.60;54.20;;;;;;5053297;28;20017;-76
2023/10/16 14:44:40;;;;;;;2.55;0.80;;;15.60;54.50;;;;;;5053172;28;20091;-83
2023/10/16 14:47:09;;;;;;;1.23;0.52;;;15.60;54.90;;;;;;5053794;28;20071;-81
2023/10/16 14:49:35;;;;;;;1.83;0.63;;;15.60;55.00;;;;;;5062107;28;20605;-81
2023/10/16 14:52:03;;;;;;;1.10;0.70;;;15.50;55.10;;;;;;5073569;28;20027;-84
2023/10/16 14:54:29;;;;;;;1.58;0.65;;;15.50;55.70;;;;;;5073637;28;20017;-84
2023/10/16 14:56:59;;;;;;;3.47;0.80;;;15.40;55.40;;;;;;5073758;28;20035;-84
2023/10/16 14:59:32;;;;;;;3.15;0.50;;;15.40;56.20;;;;;;5073525;28;20354;-83
2023/10/16 15:02:00;;;;;;;1.70;1.00;;;15.30;56.20;;;;;;5073604;28;20415;-82
2023/10/16 15:04:26;;;;;;;2.55;0.60;;;15.30;56.40;;;;;;5073196;28;20083;-81
2023/10/16 15:06:53;;;;;;;1.90;0.60;;;15.30;56.20;;;;;;5072794;28;20021;-76